sensor_id;sensor_type;location;lat;lon;timestamp;P1;durP1;ratioP1;P2;durP2;ratioP2
26478;SDS011;14163;-26.142;27.992;2022-10-15T00:01:44;25.83;;;21.23;;
26478;SDS011;14163;-26.142;27.992;2022-10-15T00:04:15;28.83;;;20.90;;
26478;SDS011;14163;-26.142;27.992;2022-10-15T00:06:45;31.40;;;22.00;;
26478;SDS011;14163;-26.142;27.992;2022-10-15T00:09:14;28.67;;;21.40;;
26478;SDS011;14163;-26.142;27.992;2022-10-15T00:11:43;30.30;;;23.70;;
26478;SDS011;14163;-26.142;27.992;2022-10-15T00:14:12;28.70;;;22.33;;
26478;SDS011;14163;-26.142;27.992;2022-10-15T00:16:42;27.97;;;22.87;;
26478;SDS011;14163;-26.142;27.992;2022-10-15T00:19:12;28.63;;;22.20;;
26478;SDS011;14163;-26.142;27.992;2022-10-15T00:21:42;25.03;;;21.53;;
26478;SDS011;14163;-26.142;27.992;2022-10-15T00:24:12;26.00;;;22.73;;
26478;SDS011;14163;-26.142;27.992;2022-10-15T00:26:41;29.80;;;22.33;;
26478;SDS011;14163;-26.142;27.992;2022-10-15T00:29:10;31.13;;;22.00;;
26478;SDS011;14163;-26.142;27.992;2022-10-15T00:31:39;33.20;;;22.00;;
26478;SDS011;14163;-26.142;27.992;2022-10-15T00:34:09;28.63;;;22.47;;
26478;SDS011;14163;-26.142;27.992;2022-10-15T00:36:38;25.83;;;21.43;;
26478;SDS011;14163;-26.142;27.992;2022-10-15T00:39:09;26.67;;;22.73;;
26478;SDS011;14163;-26.142;27.992;2022-10-15T00:41:39;36.77;;;22.17;;
26478;SDS011;14163;-26.142;27.992;2022-10-15T00:47:22;25.40;;;21.97;;
26478;SDS011;14163;-26.142;27.992;2022-10-15T00:50:02;23.43;;;21.10;;
26478;SDS011;14163;-26.142;27.992;2022-10-15T00:52:41;23.67;;;21.37;;
26478;SDS011;14163;-26.142;27.992;2022-10-15T00:55:15;24.93;;;21.13;;
26478;SDS011;14163;-26.142;27.992;2022-10-15T00:57:49;25.33;;;22.20;;
26478;SDS011;14163;-26.142;27.992;2022-10-15T01:00:19;25.07;;;22.40;;
26478;SDS011;14163;-26.142;27.992;2022-10-15T01:02:48;27.43;;;22.70;;
26478;SDS011;14163;-26.142;27.992;2022-10-15T01:05:18;25.87;;;23.37;;
26478;SDS011;14163;-26.142;27.992;2022-10-15T01:07:48;26.73;;;23.97;;
26478;SDS011;14163;-26.142;27.992;2022-10-15T01:10:19;26.60;;;24.13;;
26478;SDS011;14163;-26.142;27.992;2022-10-15T01:12:55;29.27;;;24.93;;
26478;SDS011;14163;-26.142;27.992;2022-10-15T01:15:35;27.83;;;24.87;;
26478;SDS011;14163;-26.142;27.992;2022-10-15T01:18:11;27.90;;;24.57;;
26478;SDS011;14163;-26.142;27.992;2022-10-15T01:20:58;30.40;;;25.63;;
26478;SDS011;14163;-26.142;27.992;2022-10-15T01:29:49;28.00;;;25.40;;
26478;SDS011;14163;-26.142;27.992;2022-10-15T01:32:42;27.73;;;24.93;;
26478;SDS011;14163;-26.142;27.992;2022-10-15T01:35:19;28.90;;;26.10;;
26478;SDS011;14163;-26.142;27.992;2022-10-15T01:38:04;34.73;;;26.50;;
26478;SDS011;14163;-26.142;27.992;2022-10-15T01:40:43;28.77;;;25.70;;
26478;SDS011;14163;-26.142;27.992;2022-10-15T01:43:19;32.23;;;25.60;;
26478;SDS011;14163;-26.142;27.992;2022-10-15T01:45:51;28.60;;;25.97;;
26478;SDS011;14163;-26.142;27.992;2022-10-15T01:48:25;26.07;;;23.67;;
26478;SDS011;14163;-26.142;27.992;2022-10-15T01:50:56;28.90;;;26.10;;
26478;SDS011;14163;-26.142;27.992;2022-10-15T01:53:29;27.77;;;25.10;;
26478;SDS011;14163;-26.142;27.992;2022-10-15T01:56:02;27.93;;;25.43;;
26478;SDS011;14163;-26.142;27.992;2022-10-15T01:58:35;29.10;;;26.03;;
26478;SDS011;14163;-26.142;27.992;2022-10-15T02:01:07;28.57;;;25.80;;
26478;SDS011;14163;-26.142;27.992;2022-10-15T02:03:45;27.60;;;25.10;;
26478;SDS011;14163;-26.142;27.992;2022-10-15T02:06:17;28.17;;;25.57;;
26478;SDS011;14163;-26.142;27.992;2022-10-15T02:08:55;27.27;;;24.57;;
26478;SDS011;14163;-26.142;27.992;2022-10-15T02:11:30;27.60;;;25.10;;
26478;SDS011;14163;-26.142;27.992;2022-10-15T02:14:14;28.30;;;25.30;;
26478;SDS011;14163;-26.142;27.992;2022-10-15T02:16:51;27.40;;;24.67;;
26478;SDS011;14163;-26.142;27.992;2022-10-15T02:19:31;28.73;;;25.80;;
26478;SDS011;14163;-26.142;27.992;2022-10-15T02:22:07;27.57;;;25.03;;
26478;SDS011;14163;-26.142;27.992;2022-10-15T02:24:42;27.60;;;24.90;;
26478;SDS011;14163;-26.142;27.992;2022-10-15T02:27:14;28.57;;;25.60;;
26478;SDS011;14163;-26.142;27.992;2022-10-15T02:29:45;28.10;;;25.10;;
26478;SDS011;14163;-26.142;27.992;2022-10-15T02:32:18;29.17;;;26.20;;
26478;SDS011;14163;-26.142;27.992;2022-10-15T02:34:50;29.30;;;26.53;;
26478;SDS011;14163;-26.142;27.992;2022-10-15T02:37:21;27.90;;;25.10;;
26478;SDS011;14163;-26.142;27.992;2022-10-15T02:39:52;29.20;;;26.27;;
26478;SDS011;14163;-26.142;27.992;2022-10-15T02:42:21;27.40;;;24.80;;
26478;SDS011;14163;-26.142;27.992;2022-10-15T02:44:51;27.70;;;25.13;;
26478;SDS011;14163;-26.142;27.992;2022-10-15T02:47:20;27.50;;;24.67;;
26478;SDS011;14163;-26.142;27.992;2022-10-15T02:49:51;28.20;;;25.60;;
26478;SDS011;14163;-26.142;27.992;2022-10-15T02:52:20;27.63;;;24.87;;
26478;SDS011;14163;-26.142;27.992;2022-10-15T02:54:49;26.63;;;24.07;;
26478;SDS011;14163;-26.142;27.992;2022-10-15T02:57:18;28.00;;;25.10;;
26478;SDS011;14163;-26.142;27.992;2022-10-15T02:59:47;27.50;;;24.70;;
26478;SDS011;14163;-26.142;27.992;2022-10-15T03:02:16;28.03;;;25.43;;
26478;SDS011;14163;-26.142;27.992;2022-10-15T03:04:45;28.43;;;25.53;;
26478;SDS011;14163;-26.142;27.992;2022-10-15T03:07:16;28.30;;;25.33;;
26478;SDS011;14163;-26.142;27.992;2022-10-15T03:09:46;27.77;;;24.97;;
26478;SDS011;14163;-26.142;27.992;2022-10-15T03:12:15;26.90;;;24.30;;
26478;SDS011;14163;-26.142;27.992;2022-10-15T03:14:45;28.20;;;24.37;;
26478;SDS011;14163;-26.142;27.992;2022-10-15T03:17:14;29.07;;;26.03;;
26478;SDS011;14163;-26.142;27.992;2022-10-15T03:19:44;28.53;;;25.13;;
26478;SDS011;14163;-26.142;27.992;2022-10-15T03:22:13;31.00;;;27.80;;
26478;SDS011;14163;-26.142;27.992;2022-10-15T03:24:44;27.40;;;24.60;;
26478;SDS011;14163;-26.142;27.992;2022-10-15T03:27:13;28.97;;;26.07;;
26478;SDS011;14163;-26.142;27.992;2022-10-15T03:29:42;28.90;;;26.17;;
26478;SDS011;14163;-26.142;27.992;2022-10-15T03:32:11;28.10;;;25.40;;
26478;SDS011;14163;-26.142;27.992;2022-10-15T03:34:40;29.07;;;26.13;;
26478;SDS011;14163;-26.142;27.992;2022-10-15T03:37:09;28.10;;;25.00;;
26478;SDS011;14163;-26.142;27.992;2022-10-15T03:39:38;28.33;;;25.53;;
26478;SDS011;14163;-26.142;27.992;2022-10-15T03:42:10;28.03;;;25.43;;
26478;SDS011;14163;-26.142;27.992;2022-10-15T03:44:39;29.23;;;26.20;;
26478;SDS011;14163;-26.142;27.992;2022-10-15T03:47:08;27.80;;;25.07;;
26478;SDS011;14163;-26.142;27.992;2022-10-15T03:49:37;30.27;;;27.07;;
26478;SDS011;14163;-26.142;27.992;2022-10-15T03:52:06;29.07;;;26.27;;
26478;SDS011;14163;-26.142;27.992;2022-10-15T03:54:35;27.30;;;24.70;;
26478;SDS011;14163;-26.142;27.992;2022-10-15T03:57:04;30.73;;;27.30;;
26478;SDS011;14163;-26.142;27.992;2022-10-15T03:59:35;29.93;;;26.90;;
26478;SDS011;14163;-26.142;27.992;2022-10-15T04:02:05;30.70;;;26.63;;
26478;SDS011;14163;-26.142;27.992;2022-10-15T04:04:34;30.87;;;27.63;;
26478;SDS011;14163;-26.142;27.992;2022-10-15T04:07:03;29.67;;;26.67;;
26478;SDS011;14163;-26.142;27.992;2022-10-15T04:09:32;31.63;;;26.90;;
26478;SDS011;14163;-26.142;27.992;2022-10-15T04:12:01;29.90;;;26.77;;
26478;SDS011;14163;-26.142;27.992;2022-10-15T04:14:31;31.50;;;28.40;;
26478;SDS011;14163;-26.142;27.992;2022-10-15T04:17:02;32.30;;;28.80;;
26478;SDS011;14163;-26.142;27.992;2022-10-15T04:19:31;31.30;;;27.97;;
26478;SDS011;14163;-26.142;27.992;2022-10-15T04:22:00;30.30;;;26.13;;
26478;SDS011;14163;-26.142;27.992;2022-10-15T04:24:30;28.87;;;25.43;;
26478;SDS011;14163;-26.142;27.992;2022-10-15T04:26:59;28.07;;;25.53;;
26478;SDS011;14163;-26.142;27.992;2022-10-15T04:29:28;29.80;;;26.80;;
26478;SDS011;14163;-26.142;27.992;2022-10-15T04:31:57;30.00;;;24.10;;
26478;SDS011;14163;-26.142;27.992;2022-10-15T04:34:28;28.83;;;26.00;;
26478;SDS011;14163;-26.142;27.992;2022-10-15T04:36:57;38.23;;;26.27;;
26478;SDS011;14163;-26.142;27.992;2022-10-15T04:39:26;30.50;;;26.47;;
26478;SDS011;14163;-26.142;27.992;2022-10-15T04:41:55;29.03;;;25.90;;
26478;SDS011;14163;-26.142;27.992;2022-10-15T04:44:25;28.60;;;25.57;;
26478;SDS011;14163;-26.142;27.992;2022-10-15T04:46:54;29.83;;;26.93;;
26478;SDS011;14163;-26.142;27.992;2022-10-15T04:49:23;29.23;;;25.97;;
26478;SDS011;14163;-26.142;27.992;2022-10-15T04:51:54;29.23;;;26.20;;
26478;SDS011;14163;-26.142;27.992;2022-10-15T04:54:23;28.90;;;26.00;;
26478;SDS011;14163;-26.142;27.992;2022-10-15T04:56:52;30.27;;;26.80;;
26478;SDS011;14163;-26.142;27.992;2022-10-15T04:59:22;27.30;;;24.37;;
26478;SDS011;14163;-26.142;27.992;2022-10-15T05:01:51;28.60;;;25.60;;
26478;SDS011;14163;-26.142;27.992;2022-10-15T05:04:20;30.17;;;26.97;;
26478;SDS011;14163;-26.142;27.992;2022-10-15T05:06:49;29.50;;;26.37;;
26478;SDS011;14163;-26.142;27.992;2022-10-15T05:09:20;29.80;;;26.57;;
26478;SDS011;14163;-26.142;27.992;2022-10-15T05:11:49;30.43;;;27.27;;
26478;SDS011;14163;-26.142;27.992;2022-10-15T05:14:20;37.83;;;26.77;;
26478;SDS011;14163;-26.142;27.992;2022-10-15T05:16:49;28.87;;;25.83;;
26478;SDS011;14163;-26.142;27.992;2022-10-15T05:19:18;29.90;;;26.63;;
26478;SDS011;14163;-26.142;27.992;2022-10-15T05:21:47;31.20;;;25.03;;
26478;SDS011;14163;-26.142;27.992;2022-10-15T05:24:16;32.70;;;26.40;;
26478;SDS011;14163;-26.142;27.992;2022-10-15T05:26:47;28.97;;;25.70;;
26478;SDS011;14163;-26.142;27.992;2022-10-15T05:29:16;29.50;;;26.03;;
26478;SDS011;14163;-26.142;27.992;2022-10-15T05:31:48;27.67;;;24.77;;
26478;SDS011;14163;-26.142;27.992;2022-10-15T05:34:18;31.27;;;24.33;;
26478;SDS011;14163;-26.142;27.992;2022-10-15T05:36:47;27.67;;;24.83;;
26478;SDS011;14163;-26.142;27.992;2022-10-15T05:39:16;27.00;;;23.93;;
26478;SDS011;14163;-26.142;27.992;2022-10-15T05:41:47;25.97;;;23.27;;
26478;SDS011;14163;-26.142;27.992;2022-10-15T05:44:18;26.07;;;23.23;;
26478;SDS011;14163;-26.142;27.992;2022-10-15T05:46:47;27.00;;;24.20;;
26478;SDS011;14163;-26.142;27.992;2022-10-15T05:49:16;28.40;;;23.37;;
26478;SDS011;14163;-26.142;27.992;2022-10-15T05:51:46;27.13;;;24.53;;
26478;SDS011;14163;-26.142;27.992;2022-10-15T05:54:15;28.07;;;24.43;;
26478;SDS011;14163;-26.142;27.992;2022-10-15T05:56:45;25.93;;;23.27;;
26478;SDS011;14163;-26.142;27.992;2022-10-15T05:59:15;26.67;;;23.63;;
26478;SDS011;14163;-26.142;27.992;2022-10-15T06:01:45;26.70;;;23.17;;
26478;SDS011;14163;-26.142;27.992;2022-10-15T06:04:14;30.63;;;24.80;;
26478;SDS011;14163;-26.142;27.992;2022-10-15T06:06:43;26.63;;;23.80;;
26478;SDS011;14163;-26.142;27.992;2022-10-15T06:09:13;26.63;;;23.73;;
26478;SDS011;14163;-26.142;27.992;2022-10-15T06:11:42;26.60;;;23.83;;
26478;SDS011;14163;-26.142;27.992;2022-10-15T06:14:13;26.37;;;23.57;;
26478;SDS011;14163;-26.142;27.992;2022-10-15T06:16:42;26.80;;;23.20;;
26478;SDS011;14163;-26.142;27.992;2022-10-15T06:19:15;37.87;;;25.33;;
26478;SDS011;14163;-26.142;27.992;2022-10-15T06:21:44;25.10;;;22.60;;
26478;SDS011;14163;-26.142;27.992;2022-10-15T06:24:13;26.90;;;23.23;;
26478;SDS011;14163;-26.142;27.992;2022-10-15T06:26:43;31.27;;;22.93;;
26478;SDS011;14163;-26.142;27.992;2022-10-15T06:29:14;24.90;;;22.17;;
26478;SDS011;14163;-26.142;27.992;2022-10-15T06:31:44;29.33;;;23.10;;
26478;SDS011;14163;-26.142;27.992;2022-10-15T06:34:14;32.43;;;23.37;;
26478;SDS011;14163;-26.142;27.992;2022-10-15T06:36:44;26.20;;;23.50;;
26478;SDS011;14163;-26.142;27.992;2022-10-15T06:39:14;28.53;;;24.97;;
26478;SDS011;14163;-26.142;27.992;2022-10-15T06:41:44;43.70;;;23.27;;
26478;SDS011;14163;-26.142;27.992;2022-10-15T06:44:19;23.97;;;21.33;;
26478;SDS011;14163;-26.142;27.992;2022-10-15T06:46:49;30.07;;;22.23;;
26478;SDS011;14163;-26.142;27.992;2022-10-15T06:49:18;25.10;;;22.40;;
26478;SDS011;14163;-26.142;27.992;2022-10-15T06:51:48;23.10;;;20.73;;
26478;SDS011;14163;-26.142;27.992;2022-10-15T06:54:19;23.90;;;21.43;;
26478;SDS011;14163;-26.142;27.992;2022-10-15T06:56:48;24.17;;;21.43;;
26478;SDS011;14163;-26.142;27.992;2022-10-15T06:59:19;23.53;;;21.07;;
26478;SDS011;14163;-26.142;27.992;2022-10-15T07:01:48;25.10;;;22.30;;
26478;SDS011;14163;-26.142;27.992;2022-10-15T07:04:17;25.20;;;22.50;;
26478;SDS011;14163;-26.142;27.992;2022-10-15T07:06:47;28.13;;;25.20;;
26478;SDS011;14163;-26.142;27.992;2022-10-15T07:09:16;25.87;;;22.33;;
26478;SDS011;14163;-26.142;27.992;2022-10-15T07:11:45;26.13;;;21.80;;
26478;SDS011;14163;-26.142;27.992;2022-10-15T07:14:14;25.60;;;22.87;;
26478;SDS011;14163;-26.142;27.992;2022-10-15T07:16:45;25.40;;;21.67;;
26478;SDS011;14163;-26.142;27.992;2022-10-15T07:19:15;37.97;;;33.83;;
26478;SDS011;14163;-26.142;27.992;2022-10-15T07:21:44;25.80;;;22.23;;
26478;SDS011;14163;-26.142;27.992;2022-10-15T07:24:13;23.97;;;21.50;;
26478;SDS011;14163;-26.142;27.992;2022-10-15T07:26:42;24.03;;;21.53;;
26478;SDS011;14163;-26.142;27.992;2022-10-15T07:29:13;42.03;;;34.63;;
26478;SDS011;14163;-26.142;27.992;2022-10-15T07:31:43;27.50;;;23.87;;
26478;SDS011;14163;-26.142;27.992;2022-10-15T07:34:13;24.40;;;21.37;;
26478;SDS011;14163;-26.142;27.992;2022-10-15T07:36:42;21.97;;;19.80;;
26478;SDS011;14163;-26.142;27.992;2022-10-15T07:39:12;23.83;;;21.43;;
26478;SDS011;14163;-26.142;27.992;2022-10-15T07:41:43;22.90;;;20.60;;
26478;SDS011;14163;-26.142;27.992;2022-10-15T07:44:12;25.10;;;22.50;;
26478;SDS011;14163;-26.142;27.992;2022-10-15T07:46:41;26.07;;;22.20;;
26478;SDS011;14163;-26.142;27.992;2022-10-15T07:49:12;26.17;;;23.47;;
26478;SDS011;14163;-26.142;27.992;2022-10-15T07:51:42;22.33;;;20.13;;
26478;SDS011;14163;-26.142;27.992;2022-10-15T07:54:11;23.80;;;21.40;;
26478;SDS011;14163;-26.142;27.992;2022-10-15T07:56:40;23.50;;;21.00;;
26478;SDS011;14163;-26.142;27.992;2022-10-15T07:59:09;23.80;;;21.30;;
26478;SDS011;14163;-26.142;27.992;2022-10-15T08:01:39;25.80;;;21.90;;
26478;SDS011;14163;-26.142;27.992;2022-10-15T08:04:08;23.17;;;20.80;;
26478;SDS011;14163;-26.142;27.992;2022-10-15T08:06:39;30.57;;;21.63;;
26478;SDS011;14163;-26.142;27.992;2022-10-15T08:09:08;24.67;;;21.20;;
26478;SDS011;14163;-26.142;27.992;2022-10-15T08:11:37;29.07;;;21.33;;
26478;SDS011;14163;-26.142;27.992;2022-10-15T08:14:07;22.47;;;20.23;;
26478;SDS011;14163;-26.142;27.992;2022-10-15T08:16:36;21.67;;;19.37;;
26478;SDS011;14163;-26.142;27.992;2022-10-15T08:19:05;19.87;;;17.97;;
26478;SDS011;14163;-26.142;27.992;2022-10-15T08:21:34;23.37;;;20.90;;
26478;SDS011;14163;-26.142;27.992;2022-10-15T08:24:05;22.13;;;18.13;;
26478;SDS011;14163;-26.142;27.992;2022-10-15T08:26:34;19.83;;;17.53;;
26478;SDS011;14163;-26.142;27.992;2022-10-15T08:29:03;24.70;;;18.13;;
26478;SDS011;14163;-26.142;27.992;2022-10-15T08:31:33;19.50;;;17.50;;
26478;SDS011;14163;-26.142;27.992;2022-10-15T08:34:02;22.70;;;20.50;;
26478;SDS011;14163;-26.142;27.992;2022-10-15T08:36:31;27.03;;;18.50;;
26478;SDS011;14163;-26.142;27.992;2022-10-15T08:39:01;22.67;;;20.47;;
26478;SDS011;14163;-26.142;27.992;2022-10-15T08:41:34;25.47;;;22.83;;
26478;SDS011;14163;-26.142;27.992;2022-10-15T08:44:09;21.27;;;19.30;;
26478;SDS011;14163;-26.142;27.992;2022-10-15T08:46:44;24.57;;;22.27;;
26478;SDS011;14163;-26.142;27.992;2022-10-15T08:49:19;21.90;;;19.80;;
26478;SDS011;14163;-26.142;27.992;2022-10-15T08:51:55;22.37;;;20.10;;
26478;SDS011;14163;-26.142;27.992;2022-10-15T08:54:30;25.67;;;23.00;;
26478;SDS011;14163;-26.142;27.992;2022-10-15T08:57:08;22.40;;;20.23;;
26478;SDS011;14163;-26.142;27.992;2022-10-15T08:59:45;22.33;;;19.97;;
26478;SDS011;14163;-26.142;27.992;2022-10-15T09:02:22;21.40;;;19.20;;
26478;SDS011;14163;-26.142;27.992;2022-10-15T09:04:54;24.40;;;20.90;;
26478;SDS011;14163;-26.142;27.992;2022-10-15T09:07:32;22.80;;;20.70;;
26478;SDS011;14163;-26.142;27.992;2022-10-15T09:10:11;24.17;;;21.70;;
26478;SDS011;14163;-26.142;27.992;2022-10-15T09:12:47;27.23;;;21.87;;
26478;SDS011;14163;-26.142;27.992;2022-10-15T09:15:20;25.37;;;22.67;;
26478;SDS011;14163;-26.142;27.992;2022-10-15T09:17:51;25.33;;;22.60;;
26478;SDS011;14163;-26.142;27.992;2022-10-15T09:20:22;23.93;;;21.40;;
26478;SDS011;14163;-26.142;27.992;2022-10-15T09:22:57;23.67;;;21.47;;
26478;SDS011;14163;-26.142;27.992;2022-10-15T09:25:28;25.03;;;22.50;;
26478;SDS011;14163;-26.142;27.992;2022-10-15T09:28:05;23.20;;;20.63;;
26478;SDS011;14163;-26.142;27.992;2022-10-15T09:30:38;22.80;;;20.33;;
26478;SDS011;14163;-26.142;27.992;2022-10-15T09:33:14;22.73;;;20.30;;
26478;SDS011;14163;-26.142;27.992;2022-10-15T09:35:50;22.57;;;20.47;;
26478;SDS011;14163;-26.142;27.992;2022-10-15T09:38:26;25.50;;;21.57;;
26478;SDS011;14163;-26.142;27.992;2022-10-15T09:41:05;24.50;;;20.33;;
26478;SDS011;14163;-26.142;27.992;2022-10-15T09:43:46;23.43;;;20.97;;
26478;SDS011;14163;-26.142;27.992;2022-10-15T09:46:17;21.30;;;19.27;;
26478;SDS011;14163;-26.142;27.992;2022-10-15T09:48:47;22.70;;;20.47;;
26478;SDS011;14163;-26.142;27.992;2022-10-15T09:51:23;23.37;;;21.00;;
26478;SDS011;14163;-26.142;27.992;2022-10-15T09:53:58;24.27;;;21.90;;
26478;SDS011;14163;-26.142;27.992;2022-10-15T09:56:34;22.97;;;20.70;;
26478;SDS011;14163;-26.142;27.992;2022-10-15T09:59:07;22.83;;;20.53;;
26478;SDS011;14163;-26.142;27.992;2022-10-15T10:01:55;22.30;;;19.93;;
26478;SDS011;14163;-26.142;27.992;2022-10-15T10:04:26;21.70;;;19.43;;
26478;SDS011;14163;-26.142;27.992;2022-10-15T10:06:56;22.57;;;20.33;;
26478;SDS011;14163;-26.142;27.992;2022-10-15T10:09:29;22.37;;;20.03;;
26478;SDS011;14163;-26.142;27.992;2022-10-15T10:12:00;22.37;;;20.23;;
26478;SDS011;14163;-26.142;27.992;2022-10-15T10:14:32;21.03;;;19.27;;
26478;SDS011;14163;-26.142;27.992;2022-10-15T10:17:06;19.73;;;17.93;;
26478;SDS011;14163;-26.142;27.992;2022-10-15T10:19:42;19.90;;;17.90;;
26478;SDS011;14163;-26.142;27.992;2022-10-15T10:22:12;20.23;;;18.23;;
26478;SDS011;14163;-26.142;27.992;2022-10-15T10:24:44;19.93;;;17.80;;
26478;SDS011;14163;-26.142;27.992;2022-10-15T10:27:18;20.73;;;18.00;;
26478;SDS011;14163;-26.142;27.992;2022-10-15T10:29:53;18.90;;;17.40;;
26478;SDS011;14163;-26.142;27.992;2022-10-15T10:32:26;20.70;;;18.60;;
26478;SDS011;14163;-26.142;27.992;2022-10-15T10:34:56;21.37;;;19.00;;
26478;SDS011;14163;-26.142;27.992;2022-10-15T10:37:26;20.57;;;18.47;;
26478;SDS011;14163;-26.142;27.992;2022-10-15T10:39:56;21.10;;;19.10;;
26478;SDS011;14163;-26.142;27.992;2022-10-15T10:42:30;20.43;;;18.00;;
26478;SDS011;14163;-26.142;27.992;2022-10-15T10:45:21;21.53;;;19.50;;
26478;SDS011;14163;-26.142;27.992;2022-10-15T10:47:52;20.70;;;18.80;;
26478;SDS011;14163;-26.142;27.992;2022-10-15T10:50:28;21.40;;;19.27;;
26478;SDS011;14163;-26.142;27.992;2022-10-15T10:53:10;21.77;;;19.47;;
26478;SDS011;14163;-26.142;27.992;2022-10-15T10:55:48;20.77;;;18.87;;
26478;SDS011;14163;-26.142;27.992;2022-10-15T10:58:19;19.80;;;18.00;;
26478;SDS011;14163;-26.142;27.992;2022-10-15T11:00:51;19.77;;;17.97;;
26478;SDS011;14163;-26.142;27.992;2022-10-15T11:03:29;20.30;;;18.77;;
26478;SDS011;14163;-26.142;27.992;2022-10-15T11:06:05;22.53;;;20.33;;
26478;SDS011;14163;-26.142;27.992;2022-10-15T11:08:54;21.87;;;19.87;;
26478;SDS011;14163;-26.142;27.992;2022-10-15T11:11:36;20.93;;;19.00;;
26478;SDS011;14163;-26.142;27.992;2022-10-15T11:14:11;25.73;;;20.07;;
26478;SDS011;14163;-26.142;27.992;2022-10-15T11:16:52;20.67;;;18.70;;
26478;SDS011;14163;-26.142;27.992;2022-10-15T11:19:29;21.43;;;19.50;;
26478;SDS011;14163;-26.142;27.992;2022-10-15T11:22:08;20.23;;;18.63;;
26478;SDS011;14163;-26.142;27.992;2022-10-15T11:24:51;20.67;;;18.70;;
26478;SDS011;14163;-26.142;27.992;2022-10-15T11:27:41;22.70;;;20.70;;
26478;SDS011;14163;-26.142;27.992;2022-10-15T11:30:26;22.90;;;20.87;;
26478;SDS011;14163;-26.142;27.992;2022-10-15T11:33:08;22.37;;;20.57;;
26478;SDS011;14163;-26.142;27.992;2022-10-15T11:35:47;22.77;;;20.33;;
26478;SDS011;14163;-26.142;27.992;2022-10-15T11:38:26;21.43;;;19.50;;
26478;SDS011;14163;-26.142;27.992;2022-10-15T11:41:07;22.33;;;20.53;;
26478;SDS011;14163;-26.142;27.992;2022-10-15T11:43:54;22.57;;;20.77;;
26478;SDS011;14163;-26.142;27.992;2022-10-15T11:46:34;21.97;;;19.97;;
26478;SDS011;14163;-26.142;27.992;2022-10-15T11:49:12;22.10;;;20.40;;
26478;SDS011;14163;-26.142;27.992;2022-10-15T11:51:55;20.73;;;18.83;;
26478;SDS011;14163;-26.142;27.992;2022-10-15T11:54:43;21.90;;;20.20;;
26478;SDS011;14163;-26.142;27.992;2022-10-15T11:57:15;23.07;;;21.13;;
26478;SDS011;14163;-26.142;27.992;2022-10-15T11:59:48;21.13;;;19.43;;
26478;SDS011;14163;-26.142;27.992;2022-10-15T12:02:25;22.60;;;20.40;;
26478;SDS011;14163;-26.142;27.992;2022-10-15T12:05:03;21.60;;;19.50;;
26478;SDS011;14163;-26.142;27.992;2022-10-15T12:07:36;23.03;;;21.13;;
26478;SDS011;14163;-26.142;27.992;2022-10-15T12:10:12;22.27;;;20.33;;
26478;SDS011;14163;-26.142;27.992;2022-10-15T12:12:55;21.87;;;20.17;;
26478;SDS011;14163;-26.142;27.992;2022-10-15T12:15:30;21.47;;;19.57;;
26478;SDS011;14163;-26.142;27.992;2022-10-15T12:18:09;20.53;;;19.00;;
26478;SDS011;14163;-26.142;27.992;2022-10-15T12:20:48;21.03;;;19.00;;
26478;SDS011;14163;-26.142;27.992;2022-10-15T12:23:24;20.63;;;18.90;;
26478;SDS011;14163;-26.142;27.992;2022-10-15T12:26:25;20.33;;;18.63;;
26478;SDS011;14163;-26.142;27.992;2022-10-15T12:28:57;19.53;;;17.77;;
26478;SDS011;14163;-26.142;27.992;2022-10-15T12:31:41;22.73;;;19.47;;
26478;SDS011;14163;-26.142;27.992;2022-10-15T12:34:26;20.43;;;18.73;;
26478;SDS011;14163;-26.142;27.992;2022-10-15T12:37:04;21.83;;;20.00;;
26478;SDS011;14163;-26.142;27.992;2022-10-15T12:39:43;22.50;;;20.70;;
26478;SDS011;14163;-26.142;27.992;2022-10-15T12:42:19;21.43;;;19.63;;
26478;SDS011;14163;-26.142;27.992;2022-10-15T12:44:53;19.87;;;18.27;;
26478;SDS011;14163;-26.142;27.992;2022-10-15T12:47:45;21.23;;;19.43;;
26478;SDS011;14163;-26.142;27.992;2022-10-15T12:50:17;20.80;;;19.20;;
26478;SDS011;14163;-26.142;27.992;2022-10-15T12:52:59;20.20;;;18.60;;
26478;SDS011;14163;-26.142;27.992;2022-10-15T12:55:33;23.00;;;20.63;;
26478;SDS011;14163;-26.142;27.992;2022-10-15T12:58:05;20.50;;;18.90;;
26478;SDS011;14163;-26.142;27.992;2022-10-15T13:00:48;20.23;;;18.53;;
26478;SDS011;14163;-26.142;27.992;2022-10-15T13:03:20;22.53;;;20.37;;
26478;SDS011;14163;-26.142;27.992;2022-10-15T13:05:54;22.33;;;20.40;;
26478;SDS011;14163;-26.142;27.992;2022-10-15T13:08:43;20.13;;;18.20;;
26478;SDS011;14163;-26.142;27.992;2022-10-15T13:11:17;21.13;;;19.10;;
26478;SDS011;14163;-26.142;27.992;2022-10-15T13:13:49;19.00;;;17.57;;
26478;SDS011;14163;-26.142;27.992;2022-10-15T13:16:21;20.10;;;18.60;;
26478;SDS011;14163;-26.142;27.992;2022-10-15T13:18:51;19.37;;;17.70;;
26478;SDS011;14163;-26.142;27.992;2022-10-15T13:21:24;20.60;;;18.77;;
26478;SDS011;14163;-26.142;27.992;2022-10-15T13:24:20;20.93;;;19.33;;
26478;SDS011;14163;-26.142;27.992;2022-10-15T13:26:50;21.37;;;19.57;;
26478;SDS011;14163;-26.142;27.992;2022-10-15T13:29:21;19.33;;;17.60;;
26478;SDS011;14163;-26.142;27.992;2022-10-15T13:31:53;19.90;;;18.10;;
26478;SDS011;14163;-26.142;27.992;2022-10-15T13:34:25;21.70;;;19.53;;
26478;SDS011;14163;-26.142;27.992;2022-10-15T13:36:55;22.17;;;20.27;;
26478;SDS011;14163;-26.142;27.992;2022-10-15T13:39:29;21.50;;;19.60;;
26478;SDS011;14163;-26.142;27.992;2022-10-15T13:42:06;22.50;;;20.60;;
26478;SDS011;14163;-26.142;27.992;2022-10-15T13:44:40;22.77;;;20.57;;
26478;SDS011;14163;-26.142;27.992;2022-10-15T13:47:24;21.00;;;19.20;;
26478;SDS011;14163;-26.142;27.992;2022-10-15T13:52:40;22.30;;;20.40;;
26478;SDS011;14163;-26.142;27.992;2022-10-15T13:55:16;22.57;;;20.63;;
26478;SDS011;14163;-26.142;27.992;2022-10-15T13:57:46;21.53;;;19.33;;
26478;SDS011;14163;-26.142;27.992;2022-10-15T14:00:21;21.90;;;19.90;;
26478;SDS011;14163;-26.142;27.992;2022-10-15T14:03:05;22.17;;;19.73;;
26478;SDS011;14163;-26.142;27.992;2022-10-15T14:05:45;25.07;;;21.60;;
26478;SDS011;14163;-26.142;27.992;2022-10-15T14:08:17;23.73;;;21.50;;
26478;SDS011;14163;-26.142;27.992;2022-10-15T14:10:49;22.90;;;20.77;;
26478;SDS011;14163;-26.142;27.992;2022-10-15T14:13:20;22.00;;;20.00;;
26478;SDS011;14163;-26.142;27.992;2022-10-15T14:15:51;22.27;;;20.30;;
26478;SDS011;14163;-26.142;27.992;2022-10-15T14:18:27;20.93;;;19.23;;
26478;SDS011;14163;-26.142;27.992;2022-10-15T14:20:59;22.10;;;20.00;;
26478;SDS011;14163;-26.142;27.992;2022-10-15T14:23:29;22.40;;;20.50;;
26478;SDS011;14163;-26.142;27.992;2022-10-15T14:26:01;21.60;;;19.83;;
26478;SDS011;14163;-26.142;27.992;2022-10-15T14:28:31;24.73;;;22.60;;
26478;SDS011;14163;-26.142;27.992;2022-10-15T14:31:01;22.67;;;20.77;;
26478;SDS011;14163;-26.142;27.992;2022-10-15T14:33:42;21.83;;;19.77;;
26478;SDS011;14163;-26.142;27.992;2022-10-15T14:36:22;22.30;;;20.20;;
26478;SDS011;14163;-26.142;27.992;2022-10-15T14:38:52;21.07;;;19.27;;
26478;SDS011;14163;-26.142;27.992;2022-10-15T14:41:28;27.10;;;20.50;;